sensor_id;sensor_type;location;lat;lon;timestamp;pressure;altitude;pressure_sealevel;temperature;humidity
56074;BME280;41950;55.840;37.442;2023-02-19T00:01:42;98103.84;;;-5.95;74.52
56074;BME280;41950;55.840;37.442;2023-02-19T00:04:14;98094.50;;;-5.99;74.81
56074;BME280;41950;55.840;37.442;2023-02-19T00:06:41;98103.81;;;-5.96;75.18
56074;BME280;41950;55.840;37.442;2023-02-19T00:09:09;98098.72;;;-5.98;75.11
56074;BME280;41950;55.840;37.442;2023-02-19T00:11:36;98047.56;;;-6.27;75.59
56074;BME280;41950;55.840;37.442;2023-02-19T00:14:02;98080.13;;;-6.01;75.36
56074;BME280;41950;55.840;37.442;2023-02-19T00:16:32;98090.84;;;-6.10;76.21
56074;BME280;41950;55.840;37.442;2023-02-19T00:19:00;98042.34;;;-6.33;77.74
56074;BME280;41950;55.840;37.442;2023-02-19T00:21:26;98072.94;;;-6.20;78.47
56074;BME280;41950;55.840;37.442;2023-02-19T00:23:57;98085.75;;;-6.13;78.83
56074;BME280;41950;55.840;37.442;2023-02-19T00:26:23;98078.16;;;-6.13;79.33
56074;BME280;41950;55.840;37.442;2023-02-19T00:28:51;98073.13;;;-6.13;79.16
56074;BME280;41950;55.840;37.442;2023-02-19T00:31:22;98059.41;;;-6.24;79.42
56074;BME280;41950;55.840;37.442;2023-02-19T00:33:51;98074.75;;;-6.15;79.83
56074;BME280;41950;55.840;37.442;2023-02-19T00:36:17;98067.94;;;-6.19;80.22
56074;BME280;41950;55.840;37.442;2023-02-19T00:38:43;98055.75;;;-6.35;79.88
56074;BME280;41950;55.840;37.442;2023-02-19T00:41:11;98068.75;;;-6.20;79.63
56074;BME280;41950;55.840;37.442;2023-02-19T00:43:48;98044.03;;;-6.33;79.86
56074;BME280;41950;55.840;37.442;2023-02-19T00:46:17;98041.75;;;-6.22;79.59
56074;BME280;41950;55.840;37.442;2023-02-19T00:48:43;98038.25;;;-6.29;79.19
56074;BME280;41950;55.840;37.442;2023-02-19T00:51:09;98040.00;;;-6.27;79.21
56074;BME280;41950;55.840;37.442;2023-02-19T00:53:35;98016.88;;;-6.43;77.79
56074;BME280;41950;55.840;37.442;2023-02-19T00:56:01;98040.72;;;-6.31;79.07
56074;BME280;41950;55.840;37.442;2023-02-19T00:58:27;98023.53;;;-6.47;79.02
56074;BME280;41950;55.840;37.442;2023-02-19T01:00:52;98018.56;;;-6.44;78.98
56074;BME280;41950;55.840;37.442;2023-02-19T01:03:19;98017.72;;;-6.44;79.33
56074;BME280;41950;55.840;37.442;2023-02-19T01:05:47;98034.75;;;-6.34;78.95
56074;BME280;41950;55.840;37.442;2023-02-19T01:08:13;98028.06;;;-6.32;79.04
56074;BME280;41950;55.840;37.442;2023-02-19T01:10:39;98013.75;;;-6.33;79.18
56074;BME280;41950;55.840;37.442;2023-02-19T01:13:05;97975.50;;;-6.51;79.04
56074;BME280;41950;55.840;37.442;2023-02-19T01:15:33;98012.16;;;-6.30;79.09
56074;BME280;41950;55.840;37.442;2023-02-19T01:17:59;98025.81;;;-6.21;78.81
56074;BME280;41950;55.840;37.442;2023-02-19T01:20:25;98021.53;;;-6.24;78.86
56074;BME280;41950;55.840;37.442;2023-02-19T01:22:52;98024.97;;;-6.20;78.39
56074;BME280;41950;55.840;37.442;2023-02-19T01:25:18;97999.41;;;-6.34;78.12
56074;BME280;41950;55.840;37.442;2023-02-19T01:27:43;98008.84;;;-6.27;78.43
56074;BME280;41950;55.840;37.442;2023-02-19T01:30:09;98007.97;;;-6.29;79.93
56074;BME280;41950;55.840;37.442;2023-02-19T01:32:35;97978.97;;;-6.46;79.80
56074;BME280;41950;55.840;37.442;2023-02-19T01:35:00;97974.78;;;-6.46;79.91
56074;BME280;41950;55.840;37.442;2023-02-19T01:37:26;97968.13;;;-6.42;79.83
56074;BME280;41950;55.840;37.442;2023-02-19T01:39:52;97998.81;;;-6.24;80.13
56074;BME280;41950;55.840;37.442;2023-02-19T01:42:18;97997.94;;;-6.26;79.76
56074;BME280;41950;55.840;37.442;2023-02-19T01:47:14;97914.34;;;-6.77;79.81
56074;BME280;41950;55.840;37.442;2023-02-19T01:49:46;97974.94;;;-6.38;79.84
56074;BME280;41950;55.840;37.442;2023-02-19T01:52:20;97991.81;;;-6.36;79.85
56074;BME280;41950;55.840;37.442;2023-02-19T01:54:47;97987.41;;;-6.44;79.42
56074;BME280;41950;55.840;37.442;2023-02-19T01:57:24;97995.16;;;-6.37;79.47
56074;BME280;41950;55.840;37.442;2023-02-19T01:59:55;98000.13;;;-6.40;79.71
56074;BME280;41950;55.840;37.442;2023-02-19T02:02:23;97983.00;;;-6.55;79.58
56074;BME280;41950;55.840;37.442;2023-02-19T02:04:54;97955.84;;;-6.65;78.92
56074;BME280;41950;55.840;37.442;2023-02-19T02:07:20;97992.22;;;-6.57;79.16
56074;BME280;41950;55.840;37.442;2023-02-19T02:10:05;97996.41;;;-6.57;78.93
56074;BME280;41950;55.840;37.442;2023-02-19T02:12:50;97988.59;;;-6.66;79.73
56074;BME280;41950;55.840;37.442;2023-02-19T02:15:17;97997.16;;;-6.60;80.37
56074;BME280;41950;55.840;37.442;2023-02-19T02:24:05;97989.50;;;-6.63;80.63
56074;BME280;41950;55.840;37.442;2023-02-19T02:32:36;97989.56;;;-6.61;80.83
56074;BME280;41950;55.840;37.442;2023-02-19T02:35:07;97992.09;;;-6.60;79.42
56074;BME280;41950;55.840;37.442;2023-02-19T02:37:36;97971.78;;;-6.66;80.25
56074;BME280;41950;55.840;37.442;2023-02-19T02:40:06;97985.31;;;-6.62;79.59
56074;BME280;41950;55.840;37.442;2023-02-19T02:42:34;97944.50;;;-6.83;80.77
56074;BME280;41950;55.840;37.442;2023-02-19T02:45:21;97968.41;;;-6.66;80.56
56074;BME280;41950;55.840;37.442;2023-02-19T02:51:20;97980.03;;;-6.73;80.40
56074;BME280;41950;55.840;37.442;2023-02-19T02:53:51;97969.09;;;-6.73;81.19
56074;BME280;41950;55.840;37.442;2023-02-19T02:56:36;97975.75;;;-6.77;81.08
56074;BME280;41950;55.840;37.442;2023-02-19T02:59:06;97979.97;;;-6.76;80.26
56074;BME280;41950;55.840;37.442;2023-02-19T03:05:17;97955.09;;;-6.97;80.52
56074;BME280;41950;55.840;37.442;2023-02-19T03:08:07;97945.63;;;-7.07;81.63
56074;BME280;41950;55.840;37.442;2023-02-19T03:13:35;97973.81;;;-6.87;81.69
56074;BME280;41950;55.840;37.442;2023-02-19T03:16:28;97983.22;;;-6.81;82.34
56074;BME280;41950;55.840;37.442;2023-02-19T03:19:14;97974.94;;;-6.76;82.74
56074;BME280;41950;55.840;37.442;2023-02-19T03:21:59;97965.63;;;-6.78;82.36
56074;BME280;41950;55.840;37.442;2023-02-19T03:24:32;97926.59;;;-6.93;82.40
56074;BME280;41950;55.840;37.442;2023-02-19T03:27:19;97965.84;;;-6.68;82.49
56074;BME280;41950;55.840;37.442;2023-02-19T03:29:48;97950.69;;;-6.69;82.16
56074;BME280;41950;55.840;37.442;2023-02-19T03:32:20;97949.00;;;-6.70;81.76
56074;BME280;41950;55.840;37.442;2023-02-19T03:34:54;97960.66;;;-6.75;82.20
56074;BME280;41950;55.840;37.442;2023-02-19T03:37:27;97961.44;;;-6.78;82.88
56074;BME280;41950;55.840;37.442;2023-02-19T03:39:55;97916.34;;;-7.00;82.57
56074;BME280;41950;55.840;37.442;2023-02-19T03:45:43;97944.78;;;-6.70;82.51
56074;BME280;41950;55.840;37.442;2023-02-19T03:50:49;97942.97;;;-6.77;83.14
56074;BME280;41950;55.840;37.442;2023-02-19T03:53:19;97946.38;;;-6.75;81.97
56074;BME280;41950;55.840;37.442;2023-02-19T03:56:15;97940.47;;;-6.75;82.59
56074;BME280;41950;55.840;37.442;2023-02-19T04:01:46;97919.22;;;-6.85;83.22
56074;BME280;41950;55.840;37.442;2023-02-19T04:06:55;97918.50;;;-6.81;82.99
56074;BME280;41950;55.840;37.442;2023-02-19T04:09:25;97915.03;;;-6.84;83.03
56074;BME280;41950;55.840;37.442;2023-02-19T04:11:53;97931.19;;;-6.76;82.79
56074;BME280;41950;55.840;37.442;2023-02-19T04:14:28;97926.97;;;-6.77;83.21
56074;BME280;41950;55.840;37.442;2023-02-19T04:16:59;97931.47;;;-6.64;83.32
56074;BME280;41950;55.840;37.442;2023-02-19T04:19:27;97924.69;;;-6.67;83.49
56074;BME280;41950;55.840;37.442;2023-02-19T04:21:55;97919.69;;;-6.64;83.21
56074;BME280;41950;55.840;37.442;2023-02-19T04:24:46;97928.97;;;-6.63;83.34
56074;BME280;41950;55.840;37.442;2023-02-19T04:27:13;97934.75;;;-6.67;84.06
56074;BME280;41950;55.840;37.442;2023-02-19T04:29:39;97888.88;;;-6.88;83.90
56074;BME280;41950;55.840;37.442;2023-02-19T04:32:05;97932.44;;;-6.58;83.82
56074;BME280;41950;55.840;37.442;2023-02-19T04:34:31;97924.81;;;-6.61;83.79
56074;BME280;41950;55.840;37.442;2023-02-19T04:36:57;97884.84;;;-6.81;82.80
56074;BME280;41950;55.840;37.442;2023-02-19T04:39:23;97934.03;;;-6.61;82.94
56074;BME280;41950;55.840;37.442;2023-02-19T04:41:48;97926.34;;;-6.67;82.87
56074;BME280;41950;55.840;37.442;2023-02-19T04:44:14;97927.13;;;-6.70;83.63
56074;BME280;41950;55.840;37.442;2023-02-19T04:46:40;97910.16;;;-6.77;83.89
56074;BME280;41950;55.840;37.442;2023-02-19T04:49:06;97881.19;;;-6.94;83.58
56074;BME280;41950;55.840;37.442;2023-02-19T04:51:32;97912.00;;;-6.70;83.36
56074;BME280;41950;55.840;37.442;2023-02-19T04:53:57;97880.50;;;-6.87;83.41
56074;BME280;41950;55.840;37.442;2023-02-19T04:56:23;97867.63;;;-6.99;83.45
56074;BME280;41950;55.840;37.442;2023-02-19T04:58:49;97902.66;;;-6.74;83.81
56074;BME280;41950;55.840;37.442;2023-02-19T05:01:14;97910.50;;;-6.60;83.95
56074;BME280;41950;55.840;37.442;2023-02-19T05:03:40;97919.03;;;-6.57;83.88
56074;BME280;41950;55.840;37.442;2023-02-19T05:06:08;97904.59;;;-6.62;83.60
56074;BME280;41950;55.840;37.442;2023-02-19T05:08:34;97866.25;;;-6.85;83.76
56074;BME280;41950;55.840;37.442;2023-02-19T05:11:02;97915.69;;;-6.56;83.52
56074;BME280;41950;55.840;37.442;2023-02-19T05:13:28;97908.78;;;-6.63;83.79
56074;BME280;41950;55.840;37.442;2023-02-19T05:16:00;97907.19;;;-6.58;83.72
56074;BME280;41950;55.840;37.442;2023-02-19T05:18:26;97882.38;;;-6.78;83.29
56074;BME280;41950;55.840;37.442;2023-02-19T05:20:52;97889.22;;;-6.73;83.64
56074;BME280;41950;55.840;37.442;2023-02-19T05:23:19;97876.56;;;-6.76;84.05
56074;BME280;41950;55.840;37.442;2023-02-19T05:25:45;97883.50;;;-6.66;84.09
56074;BME280;41950;55.840;37.442;2023-02-19T05:28:11;97889.53;;;-6.58;83.76
56074;BME280;41950;55.840;37.442;2023-02-19T05:30:48;97897.22;;;-6.55;83.51
56074;BME280;41950;55.840;37.442;2023-02-19T05:33:15;97858.91;;;-6.76;83.85
56074;BME280;41950;55.840;37.442;2023-02-19T05:35:47;97898.91;;;-6.53;83.32
56074;BME280;41950;55.840;37.442;2023-02-19T05:38:14;97893.03;;;-6.52;83.51
56074;BME280;41950;55.840;37.442;2023-02-19T05:40:40;97841.41;;;-6.68;83.39
56074;BME280;41950;55.840;37.442;2023-02-19T05:43:06;97870.41;;;-6.48;83.31
56074;BME280;41950;55.840;37.442;2023-02-19T05:45:33;97885.75;;;-6.39;83.43
56074;BME280;41950;55.840;37.442;2023-02-19T05:48:00;97880.59;;;-6.43;83.30
56074;BME280;41950;55.840;37.442;2023-02-19T05:50:26;97878.09;;;-6.43;82.99
56074;BME280;41950;55.840;37.442;2023-02-19T05:52:52;97883.19;;;-6.40;82.36
56074;BME280;41950;55.840;37.442;2023-02-19T05:55:18;97863.63;;;-6.50;82.64
56074;BME280;41950;55.840;37.442;2023-02-19T05:57:45;97884.94;;;-6.36;82.82
56074;BME280;41950;55.840;37.442;2023-02-19T06:00:13;97890.06;;;-6.33;82.86
56074;BME280;41950;55.840;37.442;2023-02-19T06:02:40;97886.00;;;-6.27;83.05
56074;BME280;41950;55.840;37.442;2023-02-19T06:05:05;97888.34;;;-6.34;81.31
56074;BME280;41950;55.840;37.442;2023-02-19T06:07:32;97880.78;;;-6.34;82.26
56074;BME280;41950;55.840;37.442;2023-02-19T06:09:57;97881.84;;;-6.25;82.02
56074;BME280;41950;55.840;37.442;2023-02-19T06:12:23;97868.34;;;-6.27;82.20
56074;BME280;41950;55.840;37.442;2023-02-19T06:14:49;97886.34;;;-6.08;81.58
56074;BME280;41950;55.840;37.442;2023-02-19T06:17:15;97850.53;;;-6.33;81.44
56074;BME280;41950;55.840;37.442;2023-02-19T06:19:41;97876.00;;;-6.22;81.62
56074;BME280;41950;55.840;37.442;2023-02-19T06:22:07;97833.41;;;-6.47;80.49
56074;BME280;41950;55.840;37.442;2023-02-19T06:24:33;97886.84;;;-6.26;80.76
56074;BME280;41950;55.840;37.442;2023-02-19T06:27:00;97836.50;;;-6.61;80.54
56074;BME280;41950;55.840;37.442;2023-02-19T06:29:25;97866.28;;;-6.44;81.17
56074;BME280;41950;55.840;37.442;2023-02-19T06:31:51;97882.44;;;-6.36;81.30
56074;BME280;41950;55.840;37.442;2023-02-19T06:34:17;97846.03;;;-6.47;81.33
56074;BME280;41950;55.840;37.442;2023-02-19T06:36:42;97833.41;;;-6.47;81.42
56074;BME280;41950;55.840;37.442;2023-02-19T06:39:09;97835.94;;;-6.47;81.14
56074;BME280;41950;55.840;37.442;2023-02-19T06:41:35;97876.78;;;-6.25;81.32
56074;BME280;41950;55.840;37.442;2023-02-19T06:44:00;97877.59;;;-6.26;81.11
56074;BME280;41950;55.840;37.442;2023-02-19T06:46:26;97870.06;;;-6.24;81.18
56074;BME280;41950;55.840;37.442;2023-02-19T06:48:52;97859.06;;;-6.28;80.48
56074;BME280;41950;55.840;37.442;2023-02-19T06:51:18;97865.00;;;-6.26;80.98
56074;BME280;41950;55.840;37.442;2023-02-19T06:53:48;97859.94;;;-6.26;80.30
56074;BME280;41950;55.840;37.442;2023-02-19T06:56:26;97856.69;;;-6.20;80.99
56074;BME280;41950;55.840;37.442;2023-02-19T06:58:54;97849.16;;;-6.17;81.48
56074;BME280;41950;55.840;37.442;2023-02-19T07:01:21;97850.19;;;-6.06;80.59
56074;BME280;41950;55.840;37.442;2023-02-19T07:03:48;97821.38;;;-6.17;80.62
56074;BME280;41950;55.840;37.442;2023-02-19T07:06:14;97839.34;;;-6.02;80.19
56074;BME280;41950;55.840;37.442;2023-02-19T07:08:40;97833.41;;;-6.04;79.25
56074;BME280;41950;55.840;37.442;2023-02-19T07:11:05;97842.75;;;-6.00;79.81
56074;BME280;41950;55.840;37.442;2023-02-19T07:13:31;97836.88;;;-5.99;79.86
56074;BME280;41950;55.840;37.442;2023-02-19T07:16:01;97789.16;;;-6.30;79.79
56074;BME280;41950;55.840;37.442;2023-02-19T07:18:28;97775.53;;;-6.38;79.86
56074;BME280;41950;55.840;37.442;2023-02-19T07:20:54;97785.91;;;-6.25;80.18
56074;BME280;41950;55.840;37.442;2023-02-19T07:23:20;97812.38;;;-6.03;80.33
56074;BME280;41950;55.840;37.442;2023-02-19T07:25:45;97840.22;;;-6.00;79.24
56074;BME280;41950;55.840;37.442;2023-02-19T07:28:11;97822.41;;;-6.07;79.48
56074;BME280;41950;55.840;37.442;2023-02-19T07:30:36;97830.22;;;-5.94;80.00
56074;BME280;41950;55.840;37.442;2023-02-19T07:33:04;97809.97;;;-5.97;79.95
56074;BME280;41950;55.840;37.442;2023-02-19T07:35:29;97767.44;;;-6.22;79.99
56074;BME280;41950;55.840;37.442;2023-02-19T07:37:55;97826.94;;;-5.88;80.32
56074;BME280;41950;55.840;37.442;2023-02-19T07:40:21;97826.06;;;-5.88;80.36
56074;BME280;41950;55.840;37.442;2023-02-19T07:42:54;97816.75;;;-5.94;80.92
56074;BME280;41950;55.840;37.442;2023-02-19T07:45:19;97734.03;;;-6.54;78.93
56074;BME280;41950;55.840;37.442;2023-02-19T07:47:45;97810.34;;;-6.22;80.65
56074;BME280;41950;55.840;37.442;2023-02-19T07:50:10;97810.53;;;-6.11;81.29
56074;BME280;41950;55.840;37.442;2023-02-19T07:52:38;97769.06;;;-6.26;81.30
56074;BME280;41950;55.840;37.442;2023-02-19T07:55:07;97823.47;;;-5.95;81.20
56074;BME280;41950;55.840;37.442;2023-02-19T07:57:32;97816.03;;;-5.85;81.05
56074;BME280;41950;55.840;37.442;2023-02-19T07:59:58;97796.78;;;-5.77;80.57
56074;BME280;41950;55.840;37.442;2023-02-19T08:02:24;97787.44;;;-5.83;79.94
56074;BME280;41950;55.840;37.442;2023-02-19T08:05:08;97784.09;;;-5.82;80.56
56074;BME280;41950;55.840;37.442;2023-02-19T08:07:35;97792.78;;;-5.65;80.58
56074;BME280;41950;55.840;37.442;2023-02-19T08:10:02;97797.25;;;-5.48;80.07
56074;BME280;41950;55.840;37.442;2023-02-19T08:12:59;97779.50;;;-5.51;78.85
56074;BME280;41950;55.840;37.442;2023-02-19T08:15:49;97795.06;;;-5.27;78.57
56074;BME280;41950;55.840;37.442;2023-02-19T08:18:16;97788.44;;;-5.20;78.61
56074;BME280;41950;55.840;37.442;2023-02-19T08:20:42;97801.88;;;-5.21;78.55
56074;BME280;41950;55.840;37.442;2023-02-19T08:23:08;97793.22;;;-5.39;77.92
56074;BME280;41950;55.840;37.442;2023-02-19T08:25:34;97767.75;;;-5.49;79.31
56074;BME280;41950;55.840;37.442;2023-02-19T08:28:01;97779.94;;;-5.24;79.12
56074;BME280;41950;55.840;37.442;2023-02-19T08:30:29;97788.63;;;-5.05;78.93
56074;BME280;41950;55.840;37.442;2023-02-19T08:32:58;97784.53;;;-4.95;78.78
56074;BME280;41950;55.840;37.442;2023-02-19T08:35:25;97776.16;;;-4.93;78.76
56074;BME280;41950;55.840;37.442;2023-02-19T08:37:54;97786.44;;;-4.79;77.63
56074;BME280;41950;55.840;37.442;2023-02-19T08:40:21;97767.69;;;-4.95;78.48
56074;BME280;41950;55.840;37.442;2023-02-19T08:42:46;97781.47;;;-4.73;78.13
56074;BME280;41950;55.840;37.442;2023-02-19T08:45:12;97784.97;;;-4.63;77.82
56074;BME280;41950;55.840;37.442;2023-02-19T08:47:38;97756.00;;;-4.87;77.72
56074;BME280;41950;55.840;37.442;2023-02-19T08:50:05;97785.84;;;-4.61;77.50
56074;BME280;41950;55.840;37.442;2023-02-19T08:52:32;97779.06;;;-4.64;77.35
56074;BME280;41950;55.840;37.442;2023-02-19T08:54:57;97757.06;;;-4.67;76.94
56074;BME280;41950;55.840;37.442;2023-02-19T08:57:24;97776.56;;;-4.61;77.16
56074;BME280;41950;55.840;37.442;2023-02-19T08:59:51;97752.69;;;-4.80;77.24
56074;BME280;41950;55.840;37.442;2023-02-19T09:02:16;97765.16;;;-4.93;76.56
56074;BME280;41950;55.840;37.442;2023-02-19T09:04:42;97753.06;;;-5.17;77.51
56074;BME280;41950;55.840;37.442;2023-02-19T09:07:08;97757.31;;;-5.15;78.42
56074;BME280;41950;55.840;37.442;2023-02-19T09:09:36;97765.84;;;-5.07;77.68
56074;BME280;41950;55.840;37.442;2023-02-19T09:12:10;97750.69;;;-5.05;77.83
56074;BME280;41950;55.840;37.442;2023-02-19T09:14:36;97750.91;;;-4.90;77.77
56074;BME280;41950;55.840;37.442;2023-02-19T09:17:03;97737.25;;;-5.00;77.99
56074;BME280;41950;55.840;37.442;2023-02-19T09:19:30;97738.97;;;-4.97;78.17
56074;BME280;41950;55.840;37.442;2023-02-19T09:21:56;97749.25;;;-4.86;78.32
56074;BME280;41950;55.840;37.442;2023-02-19T09:24:22;97754.94;;;-5.01;78.36
56074;BME280;41950;55.840;37.442;2023-02-19T09:26:49;97760.84;;;-5.02;78.82
56074;BME280;41950;55.840;37.442;2023-02-19T09:29:16;97745.66;;;-5.02;78.90
56074;BME280;41950;55.840;37.442;2023-02-19T09:31:42;97752.41;;;-5.03;78.90
56074;BME280;41950;55.840;37.442;2023-02-19T09:34:08;97746.53;;;-5.00;79.29
56074;BME280;41950;55.840;37.442;2023-02-19T09:36:33;97718.59;;;-5.09;78.99
56074;BME280;41950;55.840;37.442;2023-02-19T09:38:59;97737.28;;;-4.98;79.01
56074;BME280;41950;55.840;37.442;2023-02-19T09:41:31;97737.31;;;-4.95;78.70
56074;BME280;41950;55.840;37.442;2023-02-19T09:43:59;97745.81;;;-4.93;79.12
56074;BME280;41950;55.840;37.442;2023-02-19T09:46:31;97725.47;;;-4.99;78.73
56074;BME280;41950;55.840;37.442;2023-02-19T09:49:04;97740.00;;;-4.84;78.75
56074;BME280;41950;55.840;37.442;2023-02-19T09:51:31;97736.66;;;-4.80;78.75
56074;BME280;41950;55.840;37.442;2023-02-19T09:53:59;97727.44;;;-4.77;78.25
56074;BME280;41950;55.840;37.442;2023-02-19T09:56:26;97737.75;;;-4.61;77.71
56074;BME280;41950;55.840;37.442;2023-02-19T09:58:54;97684.16;;;-4.98;77.55
56074;BME280;41950;55.840;37.442;2023-02-19T10:01:24;97733.34;;;-4.76;78.01
56074;BME280;41950;55.840;37.442;2023-02-19T10:03:51;97697.78;;;-4.90;77.81
56074;BME280;41950;55.840;37.442;2023-02-19T10:06:27;97721.69;;;-4.63;77.45
56074;BME280;41950;55.840;37.442;2023-02-19T10:09:20;97720.00;;;-4.63;76.62
56074;BME280;41950;55.840;37.442;2023-02-19T10:11:46;97717.56;;;-4.54;76.63
56074;BME280;41950;55.840;37.442;2023-02-19T10:14:21;97695.44;;;-4.70;76.59
56074;BME280;41950;55.840;37.442;2023-02-19T10:16:50;97715.91;;;-4.50;76.01
56074;BME280;41950;55.840;37.442;2023-02-19T10:19:16;97719.34;;;-4.44;75.89
56074;BME280;41950;55.840;37.442;2023-02-19T10:21:42;97719.31;;;-4.48;76.56
56074;BME280;41950;55.840;37.442;2023-02-19T10:24:19;97703.91;;;-4.67;76.71
56074;BME280;41950;55.840;37.442;2023-02-19T10:26:45;97722.53;;;-4.63;76.86
56074;BME280;41950;55.840;37.442;2023-02-19T10:29:11;97720.03;;;-4.60;77.15
56074;BME280;41950;55.840;37.442;2023-02-19T10:31:37;97685.22;;;-4.81;77.14
56074;BME280;41950;55.840;37.442;2023-02-19T10:34:03;97692.69;;;-4.91;76.85
56074;BME280;41950;55.840;37.442;2023-02-19T10:36:39;97730.94;;;-4.65;76.99
56074;BME280;41950;55.840;37.442;2023-02-19T10:42:01;97710.94;;;-4.41;76.35
56074;BME280;41950;55.840;37.442;2023-02-19T10:44:28;97717.88;;;-4.25;75.93
56074;BME280;41950;55.840;37.442;2023-02-19T10:46:57;97723.00;;;-4.16;75.60
56074;BME280;41950;55.840;37.442;2023-02-19T10:49:28;97711.31;;;-4.01;75.25
56074;BME280;41950;55.840;37.442;2023-02-19T10:51:59;97711.38;;;-3.95;75.21
56074;BME280;41950;55.840;37.442;2023-02-19T10:54:32;97710.56;;;-3.90;74.57
56074;BME280;41950;55.840;37.442;2023-02-19T10:59:52;97701.19;;;-4.01;74.20
56074;BME280;41950;55.840;37.442;2023-02-19T11:02:22;97705.31;;;-4.11;75.39
56074;BME280;41950;55.840;37.442;2023-02-19T11:05:20;97707.91;;;-4.08;73.15
56074;BME280;41950;55.840;37.442;2023-02-19T11:07:48;97649.31;;;-4.42;76.16
56074;BME280;41950;55.840;37.442;2023-02-19T11:10:27;97698.53;;;-4.14;75.83
56074;BME280;41950;55.840;37.442;2023-02-19T11:12:56;97658.75;;;-4.27;75.80
56074;BME280;41950;55.840;37.442;2023-02-19T11:15:29;97686.91;;;-3.92;75.21
56074;BME280;41950;55.840;37.442;2023-02-19T11:18:23;97686.06;;;-3.91;74.05
56074;BME280;41950;55.840;37.442;2023-02-19T11:20:53;97692.09;;;-3.78;75.21
56074;BME280;41950;55.840;37.442;2023-02-19T11:25:56;97698.38;;;-3.18;72.70
56074;BME280;41950;55.840;37.442;2023-02-19T11:28:35;97658.56;;;-3.31;72.42
56074;BME280;41950;55.840;37.442;2023-02-19T11:31:24;97700.94;;;-3.11;72.46
56074;BME280;41950;55.840;37.442;2023-02-19T11:33:58;97690.66;;;-3.36;73.33
56074;BME280;41950;55.840;37.442;2023-02-19T11:36:32;97687.91;;;-3.70;73.43
56074;BME280;41950;55.840;37.442;2023-02-19T11:48:19;97696.69;;;-4.34;76.05
56074;BME280;41950;55.840;37.442;2023-02-19T11:50:32;97685.63;;;-4.40;76.90
56074;BME280;41950;55.840;37.442;2023-02-19T12:24:51;97676.31;;;-4.44;75.46
56074;BME280;41950;55.840;37.442;2023-02-19T12:30:43;97677.97;;;-4.47;76.04
56074;BME280;41950;55.840;37.442;2023-02-19T12:33:32;97681.47;;;-4.36;75.69
56074;BME280;41950;55.840;37.442;2023-02-19T12:36:24;97677.25;;;-4.34;76.33
56074;BME280;41950;55.840;37.442;2023-02-19T12:42:00;97683.06;;;-4.43;76.32
56074;BME280;41950;55.840;37.442;2023-02-19T12:47:06;97677.88;;;-4.58;77.52
56074;BME280;41950;55.840;37.442;2023-02-19T12:49:43;97685.50;;;-4.53;77.00
56074;BME280;41950;55.840;37.442;2023-02-19T12:52:19;97686.34;;;-4.53;77.55
56074;BME280;41950;55.840;37.442;2023-02-19T12:54:56;97688.00;;;-4.56;77.78
56074;BME280;41950;55.840;37.442;2023-02-19T12:57:28;97684.59;;;-4.60;78.34
56074;BME280;41950;55.840;37.442;2023-02-19T13:00:34;97687.97;;;-4.61;78.06
56074;BME280;41950;55.840;37.442;2023-02-19T13:03:22;97686.34;;;-4.56;78.00
56074;BME280;41950;55.840;37.442;2023-02-19T13:05:51;97688.03;;;-4.53;78.46
56074;BME280;41950;55.840;37.442;2023-02-19T13:08:27;97686.38;;;-4.51;78.01
56074;BME280;41950;55.840;37.442;2023-02-19T13:11:46;97693.94;;;-4.53;77.91
56074;BME280;41950;55.840;37.442;2023-02-19T13:14:31;97671.81;;;-4.71;78.26
56074;BME280;41950;55.840;37.442;2023-02-19T13:20:02;97660.72;;;-4.85;78.82
56074;BME280;41950;55.840;37.442;2023-02-19T13:22:38;97685.22;;;-4.81;78.85
56074;BME280;41950;55.840;37.442;2023-02-19T13:25:38;97688.53;;;-4.85;79.33
56074;BME280;41950;55.840;37.442;2023-02-19T13:28:24;97687.72;;;-4.82;79.02
56074;BME280;41950;55.840;37.442;2023-02-19T13:34:02;97684.97;;;-5.02;79.71
56074;BME280;41950;55.840;37.442;2023-02-19T13:36:30;97650.94;;;-5.25;80.37
56074;BME280;41950;55.840;37.442;2023-02-19T13:38:58;97684.94;;;-5.05;80.55
56074;BME280;41950;55.840;37.442;2023-02-19T13:41:36;97679.88;;;-5.04;80.05
56074;BME280;41950;55.840;37.442;2023-02-19T13:44:06;97683.28;;;-5.02;80.38
56074;BME280;41950;55.840;37.442;2023-02-19T13:46:41;97671.47;;;-5.01;79.71
56074;BME280;41950;55.840;37.442;2023-02-19T13:51:54;97685.75;;;-5.08;80.14
56074;BME280;41950;55.840;37.442;2023-02-19T13:54:31;97636.44;;;-5.42;79.25
56074;BME280;41950;55.840;37.442;2023-02-19T13:59:44;97666.91;;;-5.30;80.40
56074;BME280;41950;55.840;37.442;2023-02-19T14:05:04;97672.91;;;-5.21;80.43
56074;BME280;41950;55.840;37.442;2023-02-19T14:07:52;97661.16;;;-5.19;79.79
56074;BME280;41950;55.840;37.442;2023-02-19T14:10:51;97665.47;;;-5.11;79.62
56074;BME280;41950;55.840;37.442;2023-02-19T14:19:03;97661.31;;;-5.07;79.78
56074;BME280;41950;55.840;37.442;2023-02-19T14:21:37;97599.34;;;-5.44;79.29
56074;BME280;41950;55.840;37.442;2023-02-19T14:24:04;97609.56;;;-5.35;80.18
56074;BME280;41950;55.840;37.442;2023-02-19T14:26:34;97656.22;;;-5.10;80.71
56074;BME280;41950;55.840;37.442;2023-02-19T14:29:01;97629.72;;;-5.41;80.44
56074;BME280;41950;55.840;37.442;2023-02-19T14:31:29;97662.78;;;-5.23;80.22
56074;BME280;41950;55.840;37.442;2023-02-19T14:33:59;97662.75;;;-5.24;80.53
56074;BME280;41950;55.840;37.442;2023-02-19T14:36:33;97659.25;;;-5.36;81.16
56074;BME280;41950;55.840;37.442;2023-02-19T14:39:04;97660.06;;;-5.40;81.58
56074;BME280;41950;55.840;37.442;2023-02-19T14:41:35;97669.19;;;-5.49;81.89
56074;BME280;41950;55.840;37.442;2023-02-19T14:44:03;97622.63;;;-5.67;81.87
56074;BME280;41950;55.840;37.442;2023-02-19T14:46:38;97660.81;;;-5.47;81.64
56074;BME280;41950;55.840;37.442;2023-02-19T14:49:14;97659.13;;;-5.46;81.13
56074;BME280;41950;55.840;37.442;2023-02-19T14:51:44;97650.69;;;-5.47;81.72
56074;BME280;41950;55.840;37.442;2023-02-19T14:54:20;97644.69;;;-5.55;81.95
56074;BME280;41950;55.840;37.442;2023-02-19T14:56:53;97626.88;;;-5.64;81.70
56074;BME280;41950;55.840;37.442;2023-02-19T14:59:26;97629.47;;;-5.60;81.74
56074;BME280;41950;55.840;37.442;2023-02-19T15:02:02;97632.78;;;-5.62;81.47